sensor_id;sensor_type;location;lat;lon;timestamp;P1;durP1;ratioP1;P2;durP2;ratioP2
11386;SDS011;5748;53.102;8.456;2023-02-28T00:01:10;1.70;;;1.60;;
11386;SDS011;5748;53.102;8.456;2023-02-28T00:03:38;2.33;;;1.53;;
11386;SDS011;5748;53.102;8.456;2023-02-28T00:06:06;2.00;;;1.80;;
11386;SDS011;5748;53.102;8.456;2023-02-28T00:08:34;2.50;;;1.90;;
11386;SDS011;5748;53.102;8.456;2023-02-28T00:14:02;1.97;;;1.60;;
11386;SDS011;5748;53.102;8.456;2023-02-28T00:16:30;1.70;;;1.60;;
11386;SDS011;5748;53.102;8.456;2023-02-28T00:18:57;1.90;;;1.70;;
11386;SDS011;5748;53.102;8.456;2023-02-28T00:21:24;2.00;;;1.67;;
11386;SDS011;5748;53.102;8.456;2023-02-28T00:23:51;1.80;;;1.63;;
11386;SDS011;5748;53.102;8.456;2023-02-28T00:26:18;2.10;;;1.90;;
11386;SDS011;5748;53.102;8.456;2023-02-28T00:28:47;3.03;;;2.00;;
11386;SDS011;5748;53.102;8.456;2023-02-28T00:31:14;2.13;;;1.90;;
11386;SDS011;5748;53.102;8.456;2023-02-28T00:36:44;1.70;;;1.60;;
11386;SDS011;5748;53.102;8.456;2023-02-28T00:39:14;2.10;;;1.70;;
11386;SDS011;5748;53.102;8.456;2023-02-28T00:41:45;1.60;;;1.50;;
11386;SDS011;5748;53.102;8.456;2023-02-28T00:59:45;1.87;;;1.70;;
11386;SDS011;5748;53.102;8.456;2023-02-28T01:02:13;1.80;;;1.57;;
11386;SDS011;5748;53.102;8.456;2023-02-28T01:04:40;2.13;;;1.73;;
11386;SDS011;5748;53.102;8.456;2023-02-28T01:07:07;2.00;;;1.80;;
11386;SDS011;5748;53.102;8.456;2023-02-28T01:09:35;2.13;;;1.93;;
11386;SDS011;5748;53.102;8.456;2023-02-28T01:15:09;1.80;;;1.70;;
11386;SDS011;5748;53.102;8.456;2023-02-28T01:17:37;2.63;;;1.97;;
11386;SDS011;5748;53.102;8.456;2023-02-28T01:20:04;2.03;;;1.83;;
11386;SDS011;5748;53.102;8.456;2023-02-28T01:22:34;2.00;;;1.73;;
11386;SDS011;5748;53.102;8.456;2023-02-28T01:25:01;1.90;;;1.70;;
11386;SDS011;5748;53.102;8.456;2023-02-28T01:27:28;1.93;;;1.73;;
11386;SDS011;5748;53.102;8.456;2023-02-28T01:29:55;2.47;;;1.77;;
11386;SDS011;5748;53.102;8.456;2023-02-28T01:32:23;1.93;;;1.73;;
11386;SDS011;5748;53.102;8.456;2023-02-28T01:34:50;2.60;;;1.93;;
11386;SDS011;5748;53.102;8.456;2023-02-28T01:37:17;2.20;;;2.00;;
11386;SDS011;5748;53.102;8.456;2023-02-28T01:39:49;3.70;;;2.20;;
11386;SDS011;5748;53.102;8.456;2023-02-28T01:42:16;2.10;;;1.90;;
11386;SDS011;5748;53.102;8.456;2023-02-28T01:47:52;2.23;;;2.00;;
11386;SDS011;5748;53.102;8.456;2023-02-28T01:50:25;2.50;;;1.90;;
11386;SDS011;5748;53.102;8.456;2023-02-28T01:52:58;2.23;;;1.87;;
11386;SDS011;5748;53.102;8.456;2023-02-28T01:55:29;2.10;;;1.90;;
11386;SDS011;5748;53.102;8.456;2023-02-28T01:57:58;2.07;;;1.87;;
11386;SDS011;5748;53.102;8.456;2023-02-28T02:00:28;2.47;;;2.00;;
11386;SDS011;5748;53.102;8.456;2023-02-28T02:05:45;2.13;;;1.93;;
11386;SDS011;5748;53.102;8.456;2023-02-28T02:08:13;2.20;;;2.00;;
11386;SDS011;5748;53.102;8.456;2023-02-28T02:10:44;2.17;;;1.97;;
11386;SDS011;5748;53.102;8.456;2023-02-28T02:19:33;2.47;;;2.20;;
11386;SDS011;5748;53.102;8.456;2023-02-28T02:22:42;2.27;;;2.07;;
11386;SDS011;5748;53.102;8.456;2023-02-28T02:25:49;2.20;;;1.90;;
11386;SDS011;5748;53.102;8.456;2023-02-28T02:34:28;2.00;;;1.80;;
11386;SDS011;5748;53.102;8.456;2023-02-28T02:37:13;1.63;;;1.53;;
11386;SDS011;5748;53.102;8.456;2023-02-28T02:39:55;1.83;;;1.70;;
11386;SDS011;5748;53.102;8.456;2023-02-28T02:42:30;1.93;;;1.73;;
11386;SDS011;5748;53.102;8.456;2023-02-28T02:45:06;2.03;;;1.87;;
11386;SDS011;5748;53.102;8.456;2023-02-28T02:47:39;1.70;;;1.60;;
11386;SDS011;5748;53.102;8.456;2023-02-28T02:50:11;1.90;;;1.80;;
11386;SDS011;5748;53.102;8.456;2023-02-28T02:52:44;1.80;;;1.70;;
11386;SDS011;5748;53.102;8.456;2023-02-28T02:55:17;1.70;;;1.60;;
11386;SDS011;5748;53.102;8.456;2023-02-28T02:57:47;2.13;;;1.70;;
11386;SDS011;5748;53.102;8.456;2023-02-28T03:00:20;1.93;;;1.80;;
11386;SDS011;5748;53.102;8.456;2023-02-28T03:02:53;1.80;;;1.70;;
11386;SDS011;5748;53.102;8.456;2023-02-28T03:05:25;2.13;;;1.93;;
11386;SDS011;5748;53.102;8.456;2023-02-28T03:08:03;1.80;;;1.60;;
11386;SDS011;5748;53.102;8.456;2023-02-28T03:10:32;1.87;;;1.73;;
11386;SDS011;5748;53.102;8.456;2023-02-28T03:13:06;1.80;;;1.70;;
11386;SDS011;5748;53.102;8.456;2023-02-28T03:15:50;2.27;;;1.90;;
11386;SDS011;5748;53.102;8.456;2023-02-28T03:18:32;1.80;;;1.70;;
11386;SDS011;5748;53.102;8.456;2023-02-28T03:21:11;2.37;;;1.60;;
11386;SDS011;5748;53.102;8.456;2023-02-28T03:23:48;1.63;;;1.53;;
11386;SDS011;5748;53.102;8.456;2023-02-28T03:26:23;1.73;;;1.60;;
11386;SDS011;5748;53.102;8.456;2023-02-28T03:28:54;1.90;;;1.70;;
11386;SDS011;5748;53.102;8.456;2023-02-28T03:31:30;1.83;;;1.67;;
11386;SDS011;5748;53.102;8.456;2023-02-28T03:36:47;1.60;;;1.50;;
11386;SDS011;5748;53.102;8.456;2023-02-28T03:39:19;1.80;;;1.70;;
11386;SDS011;5748;53.102;8.456;2023-02-28T03:41:51;1.70;;;1.60;;
11386;SDS011;5748;53.102;8.456;2023-02-28T03:44:27;2.00;;;1.70;;
11386;SDS011;5748;53.102;8.456;2023-02-28T03:46:59;1.90;;;1.70;;
11386;SDS011;5748;53.102;8.456;2023-02-28T03:49:32;1.93;;;1.80;;
11386;SDS011;5748;53.102;8.456;2023-02-28T03:52:06;1.70;;;1.60;;
11386;SDS011;5748;53.102;8.456;2023-02-28T03:54:36;2.03;;;1.83;;
11386;SDS011;5748;53.102;8.456;2023-02-28T03:57:10;1.83;;;1.73;;
11386;SDS011;5748;53.102;8.456;2023-02-28T03:59:43;1.97;;;1.80;;
11386;SDS011;5748;53.102;8.456;2023-02-28T04:02:14;1.90;;;1.80;;
11386;SDS011;5748;53.102;8.456;2023-02-28T04:04:41;2.30;;;2.07;;
11386;SDS011;5748;53.102;8.456;2023-02-28T04:07:14;2.20;;;2.00;;
11386;SDS011;5748;53.102;8.456;2023-02-28T04:09:42;1.97;;;1.83;;
11386;SDS011;5748;53.102;8.456;2023-02-28T04:12:09;2.13;;;1.93;;
11386;SDS011;5748;53.102;8.456;2023-02-28T04:14:36;2.23;;;2.00;;
11386;SDS011;5748;53.102;8.456;2023-02-28T04:17:04;2.00;;;1.80;;
11386;SDS011;5748;53.102;8.456;2023-02-28T04:19:31;1.87;;;1.73;;
11386;SDS011;5748;53.102;8.456;2023-02-28T04:21:58;2.40;;;2.20;;
11386;SDS011;5748;53.102;8.456;2023-02-28T04:24:26;2.10;;;1.90;;
11386;SDS011;5748;53.102;8.456;2023-02-28T04:26:54;2.10;;;1.90;;
11386;SDS011;5748;53.102;8.456;2023-02-28T04:29:24;2.20;;;2.00;;
11386;SDS011;5748;53.102;8.456;2023-02-28T04:31:52;2.33;;;2.13;;
11386;SDS011;5748;53.102;8.456;2023-02-28T04:34:22;2.30;;;1.90;;
11386;SDS011;5748;53.102;8.456;2023-02-28T04:36:50;2.20;;;2.00;;
11386;SDS011;5748;53.102;8.456;2023-02-28T04:39:19;2.83;;;2.10;;
11386;SDS011;5748;53.102;8.456;2023-02-28T04:41:48;4.07;;;2.00;;
11386;SDS011;5748;53.102;8.456;2023-02-28T04:44:16;2.30;;;2.10;;
11386;SDS011;5748;53.102;8.456;2023-02-28T04:46:43;1.97;;;1.80;;
11386;SDS011;5748;53.102;8.456;2023-02-28T04:49:11;2.30;;;2.00;;
11386;SDS011;5748;53.102;8.456;2023-02-28T04:51:39;2.63;;;1.93;;
11386;SDS011;5748;53.102;8.456;2023-02-28T04:54:42;2.07;;;1.87;;
11386;SDS011;5748;53.102;8.456;2023-02-28T04:57:13;2.10;;;1.90;;
11386;SDS011;5748;53.102;8.456;2023-02-28T04:59:40;2.37;;;2.17;;
11386;SDS011;5748;53.102;8.456;2023-02-28T05:02:07;2.20;;;2.00;;
11386;SDS011;5748;53.102;8.456;2023-02-28T05:04:35;2.33;;;2.13;;
11386;SDS011;5748;53.102;8.456;2023-02-28T05:07:03;3.00;;;2.20;;
11386;SDS011;5748;53.102;8.456;2023-02-28T05:09:30;2.10;;;1.90;;
11386;SDS011;5748;53.102;8.456;2023-02-28T05:12:10;2.33;;;2.10;;
11386;SDS011;5748;53.102;8.456;2023-02-28T05:14:44;2.63;;;2.00;;
11386;SDS011;5748;53.102;8.456;2023-02-28T05:17:15;2.60;;;2.33;;
11386;SDS011;5748;53.102;8.456;2023-02-28T05:19:42;2.40;;;2.20;;
11386;SDS011;5748;53.102;8.456;2023-02-28T05:22:12;2.40;;;2.20;;
11386;SDS011;5748;53.102;8.456;2023-02-28T05:24:41;2.50;;;2.30;;
11386;SDS011;5748;53.102;8.456;2023-02-28T05:27:14;2.57;;;2.17;;
11386;SDS011;5748;53.102;8.456;2023-02-28T05:29:43;2.20;;;2.00;;
11386;SDS011;5748;53.102;8.456;2023-02-28T05:32:10;2.60;;;2.13;;
11386;SDS011;5748;53.102;8.456;2023-02-28T05:34:37;2.47;;;2.10;;
11386;SDS011;5748;53.102;8.456;2023-02-28T05:37:05;2.60;;;2.17;;
11386;SDS011;5748;53.102;8.456;2023-02-28T05:39:32;2.10;;;1.90;;
11386;SDS011;5748;53.102;8.456;2023-02-28T05:42:02;2.20;;;2.00;;
11386;SDS011;5748;53.102;8.456;2023-02-28T05:44:29;2.13;;;1.93;;
11386;SDS011;5748;53.102;8.456;2023-02-28T05:46:58;2.10;;;1.90;;
11386;SDS011;5748;53.102;8.456;2023-02-28T05:49:28;2.67;;;2.23;;
11386;SDS011;5748;53.102;8.456;2023-02-28T05:54:27;2.80;;;2.60;;
11386;SDS011;5748;53.102;8.456;2023-02-28T05:56:54;2.90;;;2.70;;
11386;SDS011;5748;53.102;8.456;2023-02-28T06:02:23;2.40;;;2.20;;
11386;SDS011;5748;53.102;8.456;2023-02-28T06:04:50;2.60;;;2.40;;
11386;SDS011;5748;53.102;8.456;2023-02-28T06:07:18;2.43;;;2.23;;
11386;SDS011;5748;53.102;8.456;2023-02-28T06:09:45;2.50;;;2.30;;
11386;SDS011;5748;53.102;8.456;2023-02-28T06:12:12;2.53;;;2.17;;
11386;SDS011;5748;53.102;8.456;2023-02-28T06:14:39;3.53;;;2.00;;
11386;SDS011;5748;53.102;8.456;2023-02-28T06:17:06;2.50;;;1.90;;
11386;SDS011;5748;53.102;8.456;2023-02-28T06:19:37;1.90;;;1.80;;
11386;SDS011;5748;53.102;8.456;2023-02-28T06:22:09;2.10;;;1.97;;
11386;SDS011;5748;53.102;8.456;2023-02-28T06:24:36;2.40;;;2.20;;
11386;SDS011;5748;53.102;8.456;2023-02-28T06:27:03;2.37;;;2.17;;
11386;SDS011;5748;53.102;8.456;2023-02-28T06:29:32;2.10;;;1.90;;
11386;SDS011;5748;53.102;8.456;2023-02-28T06:32:00;2.10;;;1.80;;
11386;SDS011;5748;53.102;8.456;2023-02-28T06:34:28;2.10;;;1.90;;
11386;SDS011;5748;53.102;8.456;2023-02-28T06:36:57;2.07;;;1.87;;
11386;SDS011;5748;53.102;8.456;2023-02-28T06:39:27;2.17;;;1.97;;
11386;SDS011;5748;53.102;8.456;2023-02-28T06:41:54;2.10;;;1.90;;
11386;SDS011;5748;53.102;8.456;2023-02-28T06:44:22;2.00;;;1.80;;
11386;SDS011;5748;53.102;8.456;2023-02-28T06:46:50;2.50;;;2.30;;
11386;SDS011;5748;53.102;8.456;2023-02-28T06:49:35;2.30;;;2.10;;
11386;SDS011;5748;53.102;8.456;2023-02-28T06:52:05;2.40;;;2.20;;
11386;SDS011;5748;53.102;8.456;2023-02-28T06:54:33;2.67;;;2.30;;
11386;SDS011;5748;53.102;8.456;2023-02-28T06:57:02;2.50;;;2.30;;
11386;SDS011;5748;53.102;8.456;2023-02-28T06:59:29;2.50;;;2.20;;
11386;SDS011;5748;53.102;8.456;2023-02-28T07:01:56;3.37;;;2.53;;
11386;SDS011;5748;53.102;8.456;2023-02-28T07:04:23;2.40;;;2.20;;
11386;SDS011;5748;53.102;8.456;2023-02-28T07:06:50;2.50;;;2.10;;
11386;SDS011;5748;53.102;8.456;2023-02-28T07:09:19;2.30;;;2.10;;
11386;SDS011;5748;53.102;8.456;2023-02-28T07:11:58;2.10;;;1.90;;
11386;SDS011;5748;53.102;8.456;2023-02-28T07:14:26;2.73;;;2.20;;
11386;SDS011;5748;53.102;8.456;2023-02-28T07:16:53;2.30;;;2.10;;
11386;SDS011;5748;53.102;8.456;2023-02-28T07:19:20;2.23;;;2.03;;
11386;SDS011;5748;53.102;8.456;2023-02-28T07:21:47;2.50;;;2.10;;
11386;SDS011;5748;53.102;8.456;2023-02-28T07:24:14;2.20;;;2.00;;
11386;SDS011;5748;53.102;8.456;2023-02-28T07:26:44;2.70;;;2.00;;
11386;SDS011;5748;53.102;8.456;2023-02-28T07:29:11;2.03;;;1.83;;
11386;SDS011;5748;53.102;8.456;2023-02-28T07:31:38;2.20;;;2.00;;
11386;SDS011;5748;53.102;8.456;2023-02-28T07:34:05;2.00;;;1.80;;
11386;SDS011;5748;53.102;8.456;2023-02-28T07:36:33;1.63;;;1.50;;
11386;SDS011;5748;53.102;8.456;2023-02-28T07:39:00;2.30;;;1.80;;
11386;SDS011;5748;53.102;8.456;2023-02-28T07:41:27;1.73;;;1.63;;
11386;SDS011;5748;53.102;8.456;2023-02-28T07:43:56;1.80;;;1.70;;
11386;SDS011;5748;53.102;8.456;2023-02-28T07:46:24;2.00;;;1.80;;
11386;SDS011;5748;53.102;8.456;2023-02-28T07:48:54;2.73;;;2.10;;
11386;SDS011;5748;53.102;8.456;2023-02-28T07:51:24;2.10;;;1.90;;
11386;SDS011;5748;53.102;8.456;2023-02-28T07:53:51;1.77;;;1.60;;
11386;SDS011;5748;53.102;8.456;2023-02-28T07:56:18;1.67;;;1.57;;
11386;SDS011;5748;53.102;8.456;2023-02-28T07:58:45;1.90;;;1.80;;
11386;SDS011;5748;53.102;8.456;2023-02-28T08:01:14;2.00;;;1.80;;
11386;SDS011;5748;53.102;8.456;2023-02-28T08:03:42;2.43;;;1.90;;
11386;SDS011;5748;53.102;8.456;2023-02-28T08:06:14;1.80;;;1.60;;
11386;SDS011;5748;53.102;8.456;2023-02-28T08:08:44;1.90;;;1.70;;
11386;SDS011;5748;53.102;8.456;2023-02-28T08:11:11;1.70;;;1.60;;
11386;SDS011;5748;53.102;8.456;2023-02-28T08:13:39;1.53;;;1.43;;
11386;SDS011;5748;53.102;8.456;2023-02-28T08:16:07;1.70;;;1.50;;
11386;SDS011;5748;53.102;8.456;2023-02-28T08:18:42;1.83;;;1.60;;
11386;SDS011;5748;53.102;8.456;2023-02-28T08:21:10;1.83;;;1.50;;
11386;SDS011;5748;53.102;8.456;2023-02-28T08:23:37;1.30;;;1.20;;
11386;SDS011;5748;53.102;8.456;2023-02-28T08:26:18;1.47;;;1.37;;
11386;SDS011;5748;53.102;8.456;2023-02-28T08:31:46;1.50;;;1.40;;
11386;SDS011;5748;53.102;8.456;2023-02-28T08:34:16;1.63;;;1.53;;
11386;SDS011;5748;53.102;8.456;2023-02-28T08:36:43;1.30;;;1.20;;
11386;SDS011;5748;53.102;8.456;2023-02-28T08:39:11;1.40;;;1.30;;
11386;SDS011;5748;53.102;8.456;2023-02-28T08:41:38;1.23;;;1.13;;
11386;SDS011;5748;53.102;8.456;2023-02-28T08:44:06;1.40;;;1.30;;
11386;SDS011;5748;53.102;8.456;2023-02-28T08:46:33;1.20;;;1.10;;
11386;SDS011;5748;53.102;8.456;2023-02-28T08:49:01;1.27;;;1.00;;
11386;SDS011;5748;53.102;8.456;2023-02-28T08:51:29;1.17;;;0.97;;
11386;SDS011;5748;53.102;8.456;2023-02-28T08:53:58;1.30;;;1.20;;
11386;SDS011;5748;53.102;8.456;2023-02-28T08:56:27;1.27;;;1.00;;
11386;SDS011;5748;53.102;8.456;2023-02-28T08:58:56;1.23;;;1.10;;
11386;SDS011;5748;53.102;8.456;2023-02-28T09:01:23;1.43;;;1.07;;
11386;SDS011;5748;53.102;8.456;2023-02-28T09:03:53;2.83;;;1.20;;
11386;SDS011;5748;53.102;8.456;2023-02-28T09:06:22;1.13;;;1.03;;
11386;SDS011;5748;53.102;8.456;2023-02-28T09:08:55;1.10;;;1.00;;
11386;SDS011;5748;53.102;8.456;2023-02-28T09:11:24;0.97;;;0.97;;
11386;SDS011;5748;53.102;8.456;2023-02-28T09:13:51;1.13;;;0.80;;
11386;SDS011;5748;53.102;8.456;2023-02-28T09:16:20;0.80;;;0.80;;
11386;SDS011;5748;53.102;8.456;2023-02-28T09:18:48;1.02;;;0.93;;
11386;SDS011;5748;53.102;8.456;2023-02-28T09:21:16;0.60;;;0.60;;
11386;SDS011;5748;53.102;8.456;2023-02-28T09:23:45;0.70;;;0.70;;
11386;SDS011;5748;53.102;8.456;2023-02-28T09:26:24;0.50;;;0.50;;
11386;SDS011;5748;53.102;8.456;2023-02-28T09:28:53;0.60;;;0.60;;
11386;SDS011;5748;53.102;8.456;2023-02-28T09:31:22;0.70;;;0.70;;
11386;SDS011;5748;53.102;8.456;2023-02-28T09:33:51;0.80;;;0.80;;
11386;SDS011;5748;53.102;8.456;2023-02-28T09:36:21;0.65;;;0.60;;
11386;SDS011;5748;53.102;8.456;2023-02-28T09:38:49;0.65;;;0.65;;
11386;SDS011;5748;53.102;8.456;2023-02-28T09:41:19;0.57;;;0.55;;
11386;SDS011;5748;53.102;8.456;2023-02-28T09:43:50;0.57;;;0.57;;
11386;SDS011;5748;53.102;8.456;2023-02-28T09:46:27;0.60;;;0.50;;
11386;SDS011;5748;53.102;8.456;2023-02-28T09:48:58;0.75;;;0.70;;
11386;SDS011;5748;53.102;8.456;2023-02-28T09:51:32;0.60;;;0.50;;
11386;SDS011;5748;53.102;8.456;2023-02-28T09:54:09;0.47;;;0.47;;
11386;SDS011;5748;53.102;8.456;2023-02-28T09:56:43;0.50;;;0.43;;
11386;SDS011;5748;53.102;8.456;2023-02-28T09:59:16;0.40;;;0.40;;
11386;SDS011;5748;53.102;8.456;2023-02-28T10:01:57;0.40;;;0.40;;
11386;SDS011;5748;53.102;8.456;2023-02-28T10:04:41;0.70;;;0.50;;
11386;SDS011;5748;53.102;8.456;2023-02-28T10:07:18;0.50;;;0.50;;
11386;SDS011;5748;53.102;8.456;2023-02-28T10:09:59;0.60;;;0.60;;
11386;SDS011;5748;53.102;8.456;2023-02-28T10:12:41;0.52;;;0.50;;
11386;SDS011;5748;53.102;8.456;2023-02-28T10:15:14;0.40;;;0.40;;
11386;SDS011;5748;53.102;8.456;2023-02-28T10:17:43;0.50;;;0.50;;
11386;SDS011;5748;53.102;8.456;2023-02-28T10:20:19;0.70;;;0.70;;
11386;SDS011;5748;53.102;8.456;2023-02-28T10:22:56;0.65;;;0.45;;
11386;SDS011;5748;53.102;8.456;2023-02-28T10:25:33;0.50;;;0.50;;
11386;SDS011;5748;53.102;8.456;2023-02-28T10:28:07;0.65;;;0.60;;
11386;SDS011;5748;53.102;8.456;2023-02-28T10:30:39;0.60;;;0.60;;
11386;SDS011;5748;53.102;8.456;2023-02-28T10:33:14;0.70;;;0.70;;
11386;SDS011;5748;53.102;8.456;2023-02-28T10:35:48;0.73;;;0.68;;
11386;SDS011;5748;53.102;8.456;2023-02-28T10:38:17;0.60;;;0.60;;
11386;SDS011;5748;53.102;8.456;2023-02-28T10:40:46;0.60;;;0.60;;
11386;SDS011;5748;53.102;8.456;2023-02-28T10:43:18;0.47;;;0.47;;
11386;SDS011;5748;53.102;8.456;2023-02-28T10:46:01;0.50;;;0.50;;
11386;SDS011;5748;53.102;8.456;2023-02-28T10:48:36;0.73;;;0.60;;
11386;SDS011;5748;53.102;8.456;2023-02-28T10:51:05;0.60;;;0.60;;
11386;SDS011;5748;53.102;8.456;2023-02-28T10:53:35;0.55;;;0.55;;
11386;SDS011;5748;53.102;8.456;2023-02-28T10:56:15;0.60;;;0.60;;
11386;SDS011;5748;53.102;8.456;2023-02-28T10:58:47;0.60;;;0.60;;
11386;SDS011;5748;53.102;8.456;2023-02-28T11:01:20;0.77;;;0.60;;
11386;SDS011;5748;53.102;8.456;2023-02-28T11:03:50;0.63;;;0.63;;
11386;SDS011;5748;53.102;8.456;2023-02-28T11:06:20;0.70;;;0.70;;
11386;SDS011;5748;53.102;8.456;2023-02-28T11:08:50;0.82;;;0.80;;
11386;SDS011;5748;53.102;8.456;2023-02-28T11:11:20;0.70;;;0.70;;
11386;SDS011;5748;53.102;8.456;2023-02-28T11:13:53;0.80;;;0.80;;
11386;SDS011;5748;53.102;8.456;2023-02-28T11:16:31;0.70;;;0.70;;
11386;SDS011;5748;53.102;8.456;2023-02-28T11:19:00;0.80;;;0.80;;
11386;SDS011;5748;53.102;8.456;2023-02-28T11:21:29;0.97;;;0.97;;
11386;SDS011;5748;53.102;8.456;2023-02-28T11:24:00;1.20;;;1.00;;
11386;SDS011;5748;53.102;8.456;2023-02-28T11:26:36;0.90;;;0.80;;
11386;SDS011;5748;53.102;8.456;2023-02-28T11:29:18;0.87;;;0.70;;
11386;SDS011;5748;53.102;8.456;2023-02-28T11:34:40;0.70;;;0.70;;
11386;SDS011;5748;53.102;8.456;2023-02-28T11:37:10;0.60;;;0.60;;
11386;SDS011;5748;53.102;8.456;2023-02-28T11:39:40;0.70;;;0.70;;
11386;SDS011;5748;53.102;8.456;2023-02-28T11:42:11;1.02;;;0.90;;
11386;SDS011;5748;53.102;8.456;2023-02-28T11:45:09;0.80;;;0.80;;
11386;SDS011;5748;53.102;8.456;2023-02-28T11:47:55;0.70;;;0.70;;
11386;SDS011;5748;53.102;8.456;2023-02-28T11:50:36;0.77;;;0.77;;
11386;SDS011;5748;53.102;8.456;2023-02-28T11:53:14;0.60;;;0.60;;
11386;SDS011;5748;53.102;8.456;2023-02-28T11:55:51;1.02;;;0.70;;
11386;SDS011;5748;53.102;8.456;2023-02-28T11:58:30;0.63;;;0.63;;
11386;SDS011;5748;53.102;8.456;2023-02-28T12:01:09;0.50;;;0.50;;
11386;SDS011;5748;53.102;8.456;2023-02-28T12:03:54;1.17;;;0.88;;
11386;SDS011;5748;53.102;8.456;2023-02-28T12:06:32;0.70;;;0.60;;
11386;SDS011;5748;53.102;8.456;2023-02-28T12:09:11;0.60;;;0.60;;
11386;SDS011;5748;53.102;8.456;2023-02-28T12:12:03;0.93;;;0.70;;
11386;SDS011;5748;53.102;8.456;2023-02-28T12:17:35;0.50;;;0.50;;
11386;SDS011;5748;53.102;8.456;2023-02-28T12:20:25;0.90;;;0.52;;
11386;SDS011;5748;53.102;8.456;2023-02-28T12:23:06;0.55;;;0.55;;
11386;SDS011;5748;53.102;8.456;2023-02-28T12:25:52;0.55;;;0.52;;
11386;SDS011;5748;53.102;8.456;2023-02-28T12:28:30;0.68;;;0.68;;
11386;SDS011;5748;53.102;8.456;2023-02-28T12:31:01;0.93;;;0.70;;
11386;SDS011;5748;53.102;8.456;2023-02-28T12:33:56;0.60;;;0.57;;
11386;SDS011;5748;53.102;8.456;2023-02-28T12:36:32;0.60;;;0.60;;
11386;SDS011;5748;53.102;8.456;2023-02-28T12:39:02;0.90;;;0.90;;
11386;SDS011;5748;53.102;8.456;2023-02-28T12:41:38;1.00;;;0.90;;
11386;SDS011;5748;53.102;8.456;2023-02-28T12:44:09;0.93;;;0.80;;
11386;SDS011;5748;53.102;8.456;2023-02-28T12:46:41;0.90;;;0.80;;
11386;SDS011;5748;53.102;8.456;2023-02-28T12:49:12;0.73;;;0.73;;
11386;SDS011;5748;53.102;8.456;2023-02-28T12:51:45;0.93;;;0.75;;
11386;SDS011;5748;53.102;8.456;2023-02-28T12:54:16;1.10;;;1.00;;
11386;SDS011;5748;53.102;8.456;2023-02-28T12:56:52;0.73;;;0.73;;
11386;SDS011;5748;53.102;8.456;2023-02-28T12:59:25;0.68;;;0.68;;
11386;SDS011;5748;53.102;8.456;2023-02-28T13:05:29;0.80;;;0.73;;
11386;SDS011;5748;53.102;8.456;2023-02-28T13:08:44;0.98;;;0.70;;
11386;SDS011;5748;53.102;8.456;2023-02-28T13:11:28;0.63;;;0.63;;
11386;SDS011;5748;53.102;8.456;2023-02-28T13:13:58;1.08;;;0.80;;
11386;SDS011;5748;53.102;8.456;2023-02-28T13:16:28;1.00;;;0.60;;
11386;SDS011;5748;53.102;8.456;2023-02-28T13:19:20;1.00;;;0.90;;
11386;SDS011;5748;53.102;8.456;2023-02-28T13:21:50;0.90;;;0.90;;
11386;SDS011;5748;53.102;8.456;2023-02-28T13:24:40;0.87;;;0.80;;
11386;SDS011;5748;53.102;8.456;2023-02-28T13:27:44;0.80;;;0.80;;
11386;SDS011;5748;53.102;8.456;2023-02-28T13:33:28;1.07;;;0.70;;
11386;SDS011;5748;53.102;8.456;2023-02-28T13:36:08;1.20;;;1.00;;
11386;SDS011;5748;53.102;8.456;2023-02-28T13:38:49;1.20;;;1.10;;
11386;SDS011;5748;53.102;8.456;2023-02-28T13:44:16;1.20;;;1.10;;
11386;SDS011;5748;53.102;8.456;2023-02-28T13:49:50;0.83;;;0.83;;
11386;SDS011;5748;53.102;8.456;2023-02-28T13:52:19;0.80;;;0.80;;
11386;SDS011;5748;53.102;8.456;2023-02-28T13:58:01;0.73;;;0.73;;
11386;SDS011;5748;53.102;8.456;2023-02-28T14:00:42;1.00;;;0.90;;
11386;SDS011;5748;53.102;8.456;2023-02-28T14:03:38;1.00;;;0.90;;
11386;SDS011;5748;53.102;8.456;2023-02-28T14:09:19;1.10;;;0.70;;
11386;SDS011;5748;53.102;8.456;2023-02-28T14:11:51;1.03;;;0.93;;
11386;SDS011;5748;53.102;8.456;2023-02-28T14:17:23;0.97;;;0.97;;
11386;SDS011;5748;53.102;8.456;2023-02-28T14:19:52;0.83;;;0.83;;
11386;SDS011;5748;53.102;8.456;2023-02-28T14:22:25;1.10;;;1.00;;
11386;SDS011;5748;53.102;8.456;2023-02-28T14:25:18;0.80;;;0.80;;
11386;SDS011;5748;53.102;8.456;2023-02-28T14:27:50;1.27;;;0.90;;
11386;SDS011;5748;53.102;8.456;2023-02-28T14:33:39;1.10;;;1.00;;
11386;SDS011;5748;53.102;8.456;2023-02-28T14:39:36;1.07;;;0.93;;
11386;SDS011;5748;53.102;8.456;2023-02-28T14:45:02;1.27;;;1.10;;
11386;SDS011;5748;53.102;8.456;2023-02-28T14:47:31;1.03;;;1.00;;
11386;SDS011;5748;53.102;8.456;2023-02-28T14:52:56;1.20;;;1.10;;
11386;SDS011;5748;53.102;8.456;2023-02-28T14:55:25;0.90;;;0.90;;
11386;SDS011;5748;53.102;8.456;2023-02-28T14:57:56;1.13;;;1.00;;
11386;SDS011;5748;53.102;8.456;2023-02-28T15:00:25;0.97;;;0.90;;
11386;SDS011;5748;53.102;8.456;2023-02-28T15:05:58;1.37;;;1.10;;
11386;SDS011;5748;53.102;8.456;2023-02-28T15:08:27;1.13;;;0.97;;
11386;SDS011;5748;53.102;8.456;2023-02-28T15:10:57;1.50;;;1.00;;
11386;SDS011;5748;53.102;8.456;2023-02-28T15:13:36;1.00;;;0.90;;
11386;SDS011;5748;53.102;8.456;2023-02-28T15:16:08;1.00;;;0.90;;
11386;SDS011;5748;53.102;8.456;2023-02-28T15:21:33;0.90;;;0.80;;
11386;SDS011;5748;53.102;8.456;2023-02-28T15:24:04;1.00;;;0.90;;
11386;SDS011;5748;53.102;8.456;2023-02-28T15:26:38;1.00;;;0.90;;
11386;SDS011;5748;53.102;8.456;2023-02-28T15:29:10;0.90;;;0.90;;
11386;SDS011;5748;53.102;8.456;2023-02-28T15:31:43;1.10;;;0.97;;
11386;SDS011;5748;53.102;8.456;2023-02-28T15:34:15;1.90;;;0.90;;
11386;SDS011;5748;53.102;8.456;2023-02-28T15:36:54;1.47;;;1.00;;
11386;SDS011;5748;53.102;8.456;2023-02-28T15:39:22;1.07;;;0.97;;
11386;SDS011;5748;53.102;8.456;2023-02-28T15:41:52;1.20;;;1.07;;
11386;SDS011;5748;53.102;8.456;2023-02-28T15:44:36;1.23;;;1.10;;
11386;SDS011;5748;53.102;8.456;2023-02-28T15:47:05;1.30;;;1.20;;
11386;SDS011;5748;53.102;8.456;2023-02-28T15:49:44;1.30;;;1.20;;
11386;SDS011;5748;53.102;8.456;2023-02-28T15:52:15;1.40;;;1.10;;
11386;SDS011;5748;53.102;8.456;2023-02-28T15:54:44;0.80;;;0.80;;
11386;SDS011;5748;53.102;8.456;2023-02-28T15:57:13;1.10;;;1.00;;
11386;SDS011;5748;53.102;8.456;2023-02-28T15:59:49;1.23;;;1.13;;
11386;SDS011;5748;53.102;8.456;2023-02-28T16:02:20;1.27;;;1.10;;
11386;SDS011;5748;53.102;8.456;2023-02-28T16:04:56;1.10;;;1.00;;
11386;SDS011;5748;53.102;8.456;2023-02-28T16:07:26;1.00;;;1.00;;
11386;SDS011;5748;53.102;8.456;2023-02-28T16:09:54;1.70;;;1.40;;
11386;SDS011;5748;53.102;8.456;2023-02-28T16:12:24;1.30;;;1.20;;
11386;SDS011;5748;53.102;8.456;2023-02-28T16:14:54;1.53;;;1.40;;
11386;SDS011;5748;53.102;8.456;2023-02-28T16:17:24;1.30;;;1.10;;
11386;SDS011;5748;53.102;8.456;2023-02-28T16:20:05;1.40;;;1.30;;
11386;SDS011;5748;53.102;8.456;2023-02-28T16:22:39;1.20;;;1.10;;
11386;SDS011;5748;53.102;8.456;2023-02-28T16:25:11;2.40;;;1.00;;
11386;SDS011;5748;53.102;8.456;2023-02-28T16:27:40;1.30;;;1.20;;
11386;SDS011;5748;53.102;8.456;2023-02-28T16:30:13;1.30;;;1.20;;
11386;SDS011;5748;53.102;8.456;2023-02-28T16:32:46;1.47;;;1.37;;
11386;SDS011;5748;53.102;8.456;2023-02-28T16:35:14;1.40;;;1.17;;
11386;SDS011;5748;53.102;8.456;2023-02-28T16:37:50;1.10;;;1.00;;
11386;SDS011;5748;53.102;8.456;2023-02-28T16:40:21;1.20;;;1.10;;
11386;SDS011;5748;53.102;8.456;2023-02-28T16:42:50;1.40;;;1.30;;
11386;SDS011;5748;53.102;8.456;2023-02-28T16:45:20;1.20;;;1.10;;
11386;SDS011;5748;53.102;8.456;2023-02-28T16:47:51;1.30;;;1.20;;
11386;SDS011;5748;53.102;8.456;2023-02-28T16:50:23;1.30;;;1.20;;
11386;SDS011;5748;53.102;8.456;2023-02-28T16:52:52;1.10;;;1.00;;
11386;SDS011;5748;53.102;8.456;2023-02-28T16:55:20;2.50;;;2.20;;
11386;SDS011;5748;53.102;8.456;2023-02-28T16:57:50;2.00;;;1.80;;
11386;SDS011;5748;53.102;8.456;2023-02-28T17:00:29;2.10;;;1.90;;
11386;SDS011;5748;53.102;8.456;2023-02-28T17:03:07;1.90;;;1.60;;
11386;SDS011;5748;53.102;8.456;2023-02-28T17:05:55;1.80;;;1.53;;
11386;SDS011;5748;53.102;8.456;2023-02-28T17:08:36;1.70;;;1.57;;
11386;SDS011;5748;53.102;8.456;2023-02-28T17:13:50;1.67;;;1.57;;